Time,TemperatureF,DewpointF,PressureIn,WindDirection,WindDirectionDegrees,WindSpeedMPH,WindSpeedGustMPH,Humidity,HourlyPrecipIn,Conditions,Clouds,dailyrainin,SoftwareType,DateUTC
2013-04-02 00:00:00,26.1,17.0,29.67,WSW,247,6.0,19.0,68,0.00,,,0.39,Weather View 32 v70,2013-04-02 04:00:00,
2013-04-02 00:05:00,25.9,17.5,29.67,NW,315,2.0,16.0,70,0.00,,,0.00,Weather View 32 v70,2013-04-02 04:05:00,
2013-04-02 00:10:00,25.9,17.1,29.67,South,180,1.0,16.0,69,0.00,,,0.00,Weather View 32 v70,2013-04-02 04:10:00,
2013-04-02 00:15:00,25.9,17.5,29.67,West,270,2.0,16.0,70,0.00,,,0.00,Weather View 32 v70,2013-04-02 04:15:00,
2013-04-02 00:20:00,25.9,17.8,29.67,West,270,1.0,16.0,71,0.00,,,0.00,Weather View 32 v70,2013-04-02 04:20:00,
2013-04-02 00:25:00,25.7,19.2,29.67,WSW,247,2.0,16.0,76,0.00,,,0.00,Weather View 32 v70,2013-04-02 04:25:00,
2013-04-02 00:30:00,25.3,18.2,29.67,NW,315,2.0,16.0,74,0.00,,,0.00,Weather View 32 v70,2013-04-02 04:30:00,
2013-04-02 00:35:00,25.2,18.1,29.67,NNW,337,4.0,16.0,74,0.00,,,0.00,Weather View 32 v70,2013-04-02 04:35:00,
2013-04-02 00:40:00,25.2,17.8,29.67,West,270,3.0,13.0,73,0.00,,,0.00,Weather View 32 v70,2013-04-02 04:40:00,
2013-04-02 00:45:00,25.2,19.3,29.67,West,270,2.0,13.0,78,0.00,,,0.00,Weather View 32 v70,2013-04-02 04:45:00,
2013-04-02 00:50:00,25.2,17.4,29.67,SW,225,3.0,13.0,72,0.00,,,0.00,Weather View 32 v70,2013-04-02 04:50:00,
2013-04-02 00:55:00,25.1,15.7,29.66,WNW,292,4.0,16.0,67,0.00,,,0.00,Weather View 32 v70,2013-04-02 04:55:00,
2013-04-02 01:00:00,25.2,15.4,29.67,WSW,247,8.0,16.0,66,0.00,,,0.00,Weather View 32 v70,2013-04-02 05:00:00,
2013-04-02 01:05:00,25.0,14.5,29.67,WSW,247,3.0,16.0,64,0.00,,,0.00,Weather View 32 v70,2013-04-02 05:05:00,
2013-04-02 01:10:00,25.0,13.4,29.68,South,180,6.0,16.0,61,0.00,,,0.00,Weather View 32 v70,2013-04-02 05:10:00,
2013-04-02 01:15:00,24.9,12.2,29.68,SSW,202,2.0,16.0,58,0.00,,,0.00,Weather View 32 v70,2013-04-02 05:15:00,
2013-04-02 01:20:00,24.9,11.8,29.68,WSW,247,2.0,16.0,57,0.00,,,0.00,Weather View 32 v70,2013-04-02 05:20:00,
2013-04-02 01:25:00,24.9,11.0,29.68,WSW,247,2.0,16.0,55,0.00,,,0.00,Weather View 32 v70,2013-04-02 05:25:00,
2013-04-02 01:30:00,24.8,10.1,29.68,SSW,202,2.0,17.0,53,0.22,,,0.00,Weather View 32 v70,2013-04-02 05:30:00,
2013-04-02 01:35:00,24.7,10.4,29.68,SSW,202,2.0,17.0,54,0.00,,,0.00,Weather View 32 v70,2013-04-02 05:35:00,
2013-04-02 01:40:00,24.5,9.0,29.68,WSW,247,5.0,17.0,51,0.00,,,0.00,Weather View 32 v70,2013-04-02 05:40:00,
2013-04-02 01:45:00,24.5,9.4,29.68,SSW,202,12.0,17.0,52,0.00,,,0.00,Weather View 32 v70,2013-04-02 05:45:00,
2013-04-02 01:50:00,24.4,15.7,29.68,SSW,202,4.0,17.0,69,0.00,,,0.00,Weather View 32 v70,2013-04-02 05:50:00,
2013-04-02 01:55:00,24.2,17.4,29.68,SW,225,1.0,17.0,75,0.00,,,0.00,Weather View 32 v70,2013-04-02 05:55:00,
2013-04-02 02:00:00,24.0,17.2,29.68,West,270,2.0,17.0,75,0.00,,,0.00,Weather View 32 v70,2013-04-02 06:00:00,
2013-04-02 02:05:00,24.0,14.6,29.68,WNW,292,7.0,17.0,67,0.00,,,0.00,Weather View 32 v70,2013-04-02 06:05:00,
2013-04-02 02:10:00,24.0,14.6,29.68,SW,225,12.0,17.0,67,0.00,,,0.00,Weather View 32 v70,2013-04-02 06:10:00,
2013-04-02 02:15:00,23.9,14.2,29.68,SSE,157,4.0,17.0,66,0.00,,,0.00,Weather View 32 v70,2013-04-02 06:15:00,
2013-04-02 02:20:00,23.8,15.8,29.67,WNW,292,1.0,17.0,71,0.00,,,0.00,Weather View 32 v70,2013-04-02 06:20:00,
2013-04-02 02:25:00,23.8,14.8,29.67,SW,225,10.0,17.0,68,0.00,,,0.00,Weather View 32 v70,2013-04-02 06:25:00,
2013-04-02 02:30:00,23.6,15.6,29.67,WNW,292,4.0,13.0,71,0.00,,,0.00,Weather View 32 v70,2013-04-02 06:30:00,
2013-04-02 02:35:00,23.5,13.5,29.67,WNW,292,2.0,13.0,65,0.00,,,0.00,Weather View 32 v70,2013-04-02 06:35:00,
2013-04-02 02:40:00,23.5,13.5,29.67,WSW,247,4.0,13.0,65,0.00,,,0.00,Weather View 32 v70,2013-04-02 06:40:00,
2013-04-02 02:45:00,23.5,13.1,29.67,WNW,292,4.0,13.0,64,0.00,,,0.00,Weather View 32 v70,2013-04-02 06:45:00,
2013-04-02 02:50:00,23.4,12.3,29.67,SW,225,3.0,13.0,62,0.00,,,0.00,Weather View 32 v70,2013-04-02 06:50:00,
2013-04-02 02:55:00,23.3,12.6,29.68,NNW,337,1.0,13.0,63,0.00,,,0.00,Weather View 32 v70,2013-04-02 06:55:00,
2013-04-02 03:00:00,23.2,11.7,29.68,SSW,202,3.0,13.0,61,0.00,,,0.00,Weather View 32 v70,2013-04-02 07:00:00,
2013-04-02 03:05:00,23.1,11.3,29.68,WSW,247,10.0,13.0,60,0.00,,,0.00,Weather View 32 v70,2013-04-02 07:05:00,
2013-04-02 03:10:00,23.1,11.6,29.68,NNW,337,1.0,12.0,61,0.00,,,0.00,Weather View 32 v70,2013-04-02 07:10:00,
2013-04-02 03:15:00,22.9,10.7,29.67,SSE,157,2.0,12.0,59,0.00,,,0.00,Weather View 32 v70,2013-04-02 07:15:00,
2013-04-02 03:20:00,22.9,9.9,29.67,WSW,247,8.0,12.0,57,0.00,,,0.00,Weather View 32 v70,2013-04-02 07:20:00,
2013-04-02 03:25:00,22.9,9.9,29.67,NNW,337,2.0,12.0,57,0.00,,,0.00,Weather View 32 v70,2013-04-02 07:25:00,
2013-04-02 03:31:00,22.9,10.3,29.67,SSE,157,0.0,12.0,58,0.00,,,0.00,Weather View 32 v70,2013-04-02 07:31:00,
2013-04-02 03:36:00,22.8,11.0,29.67,WSW,247,8.0,11.0,60,0.00,,,0.00,Weather View 32 v70,2013-04-02 07:36:00,
2013-04-02 03:41:00,22.7,10.1,29.67,NNW,337,1.0,11.0,58,0.00,,,0.00,Weather View 32 v70,2013-04-02 07:41:00,
2013-04-02 03:46:00,22.6,9.7,29.67,South,180,2.0,11.0,57,0.00,,,0.00,Weather View 32 v70,2013-04-02 07:46:00,
2013-04-02 03:51:00,22.6,9.7,29.67,SW,225,0.0,11.0,57,0.00,,,0.00,Weather View 32 v70,2013-04-02 07:51:00,
2013-04-02 03:56:00,22.3,12.7,29.67,SE,135,0.0,11.0,66,0.00,,,0.00,Weather View 32 v70,2013-04-02 07:56:00,
2013-04-02 04:01:00,22.1,12.5,29.67,WNW,292,1.0,11.0,66,0.00,,,0.00,Weather View 32 v70,2013-04-02 08:01:00,
2013-04-02 04:06:00,21.9,13.0,29.67,ESE,112,1.0,11.0,68,0.00,,,0.00,Weather View 32 v70,2013-04-02 08:06:00,
2013-04-02 04:11:00,21.9,13.6,29.67,SSE,157,0.0,11.0,70,0.00,,,0.00,Weather View 32 v70,2013-04-02 08:11:00,
2013-04-02 04:17:00,21.8,14.2,29.67,SSW,202,2.0,11.0,72,0.00,,,0.00,Weather View 32 v70,2013-04-02 08:17:00,
2013-04-02 04:22:00,21.8,16.0,29.67,SSW,202,2.0,11.0,78,0.00,,,0.00,Weather View 32 v70,2013-04-02 08:22:00,
2013-04-02 04:27:00,21.8,17.7,29.68,NW,315,1.0,11.0,84,0.00,,,0.00,Weather View 32 v70,2013-04-02 08:27:00,
2013-04-02 04:32:00,21.7,16.2,29.68,SW,225,1.0,11.0,79,0.00,,,0.00,Weather View 32 v70,2013-04-02 08:32:00,
2013-04-02 04:37:00,21.4,15.6,29.68,SSW,202,1.0,11.0,78,0.00,,,0.00,Weather View 32 v70,2013-04-02 08:37:00,
2013-04-02 04:42:00,21.1,17.6,29.69,WSW,247,2.0,11.0,86,0.00,,,0.00,Weather View 32 v70,2013-04-02 08:42:00,
2013-04-02 04:47:00,21.2,15.4,29.69,SSW,202,1.0,11.0,78,0.00,,,0.00,Weather View 32 v70,2013-04-02 08:47:00,
2013-04-02 04:52:00,21.2,18.5,29.68,West,270,2.0,9.0,89,0.00,,,0.00,Weather View 32 v70,2013-04-02 08:52:00,
2013-04-02 04:57:00,21.3,17.5,29.68,WNW,292,0.0,9.0,85,0.00,,,0.00,Weather View 32 v70,2013-04-02 08:57:00,
2013-04-02 05:02:00,21.3,17.5,29.69,WSW,247,1.0,9.0,85,0.00,,,0.00,Weather View 32 v70,2013-04-02 09:02:00,
2013-04-02 05:07:00,21.2,17.7,29.69,WSW,247,2.0,9.0,86,0.00,,,0.00,Weather View 32 v70,2013-04-02 09:07:00,
2013-04-02 05:15:00,20.8,18.8,29.69,WNW,292,0.0,9.0,92,0.00,,,0.00,Weather View 32 v70,2013-04-02 09:15:00,
2013-04-02 05:20:00,20.6,18.1,29.69,SSW,202,0.0,9.0,90,0.00,,,0.00,Weather View 32 v70,2013-04-02 09:20:00,
2013-04-02 05:25:00,20.7,18.7,29.69,West,270,1.0,9.0,92,0.00,,,0.00,Weather View 32 v70,2013-04-02 09:25:00,
2013-04-02 05:30:00,20.7,19.0,29.69,East,90,2.0,9.0,93,0.00,,,0.00,Weather View 32 v70,2013-04-02 09:30:00,
2013-04-02 05:35:00,20.6,18.6,29.69,NW,315,1.0,9.0,92,0.00,,,0.00,Weather View 32 v70,2013-04-02 09:35:00,
2013-04-02 05:40:00,20.4,18.7,29.69,ENE,67,1.0,9.0,93,0.00,,,0.00,Weather View 32 v70,2013-04-02 09:40:00,
2013-04-02 05:45:00,20.5,18.5,29.69,NNE,22,1.0,9.0,92,0.00,,,0.00,Weather View 32 v70,2013-04-02 09:45:00,
2013-04-02 05:50:00,20.6,18.4,29.69,WNW,292,2.0,9.0,91,0.00,,,0.00,Weather View 32 v70,2013-04-02 09:50:00,
2013-04-02 05:55:00,20.7,19.0,29.69,West,270,1.0,9.0,93,0.00,,,0.00,Weather View 32 v70,2013-04-02 09:55:00,
2013-04-02 06:00:00,20.6,18.9,29.70,WSW,247,1.0,9.0,93,0.00,,,0.00,Weather View 32 v70,2013-04-02 10:00:00,
2013-04-02 06:05:00,20.5,18.8,29.70,SSW,202,0.0,9.0,93,0.00,,,0.00,Weather View 32 v70,2013-04-02 10:05:00,
2013-04-02 06:10:00,20.3,18.6,29.70,SSW,202,2.0,9.0,93,0.00,,,0.00,Weather View 32 v70,2013-04-02 10:10:00,
2013-04-02 06:15:00,20.4,18.7,29.70,ESE,112,0.0,9.0,93,0.00,,,0.00,Weather View 32 v70,2013-04-02 10:15:00,
2013-04-02 06:20:00,20.3,18.4,29.70,North,360,0.0,9.0,92,0.00,,,0.00,Weather View 32 v70,2013-04-02 10:20:00,
2013-04-02 06:25:00,20.3,18.6,29.70,NNW,337,0.0,8.0,93,0.00,,,0.00,Weather View 32 v70,2013-04-02 10:25:00,
2013-04-02 06:30:00,20.4,18.4,29.70,South,180,1.0,8.0,92,0.00,,,0.00,Weather View 32 v70,2013-04-02 10:30:00,
2013-04-02 06:35:00,20.5,18.3,29.70,SSW,202,2.0,12.0,91,0.00,,,0.00,Weather View 32 v70,2013-04-02 10:35:00,
2013-04-02 06:41:00,20.4,18.2,29.70,WSW,247,0.0,12.0,91,0.00,,,0.00,Weather View 32 v70,2013-04-02 10:41:00,
2013-04-02 06:46:00,20.6,16.8,29.70,WSW,247,1.0,12.0,85,0.00,,,0.00,Weather View 32 v70,2013-04-02 10:46:00,
2013-04-02 06:51:00,20.7,18.0,29.70,SSW,202,1.0,12.0,89,0.00,,,0.00,Weather View 32 v70,2013-04-02 10:51:00,
2013-04-02 06:56:00,20.9,18.2,29.70,WNW,292,0.0,12.0,89,0.00,,,0.00,Weather View 32 v70,2013-04-02 10:56:00,
2013-04-02 07:01:00,21.0,15.8,29.71,NNW,337,1.0,12.0,80,0.00,,,0.00,Weather View 32 v70,2013-04-02 11:01:00,
2013-04-02 07:06:00,21.2,18.2,29.71,West,270,2.0,12.0,88,0.00,,,0.00,Weather View 32 v70,2013-04-02 11:06:00,
2013-04-02 07:11:00,21.6,18.3,29.70,NE,45,2.0,12.0,87,0.00,,,0.00,Weather View 32 v70,2013-04-02 11:11:00,
2013-04-02 07:16:00,21.9,14.9,29.71,WNW,292,2.0,12.0,74,0.00,,,0.00,Weather View 32 v70,2013-04-02 11:16:00,
2013-04-02 07:21:00,22.3,15.6,29.71,SSE,157,2.0,12.0,75,0.00,,,0.00,Weather View 32 v70,2013-04-02 11:21:00,
2013-04-02 07:26:00,22.5,15.2,29.71,West,270,0.0,12.0,73,0.00,,,0.00,Weather View 32 v70,2013-04-02 11:26:00,
2013-04-02 07:31:00,22.8,15.4,29.71,WNW,292,4.0,12.0,73,0.00,,,0.00,Weather View 32 v70,2013-04-02 11:31:00,
2013-04-02 07:36:00,22.9,15.9,29.72,NNE,22,2.0,9.0,74,0.00,,,0.00,Weather View 32 v70,2013-04-02 11:36:00,
2013-04-02 07:41:00,23.4,15.1,29.72,WSW,247,1.0,9.0,70,0.00,,,0.00,Weather View 32 v70,2013-04-02 11:41:00,
2013-04-02 07:47:00,23.4,14.1,29.72,SSE,157,1.0,12.0,67,0.00,,,0.00,Weather View 32 v70,2013-04-02 11:47:00,
2013-04-02 07:52:00,23.5,14.2,29.72,SSW,202,1.0,12.0,67,0.00,,,0.00,Weather View 32 v70,2013-04-02 11:52:00,
2013-04-02 07:57:00,23.7,14.0,29.72,NNW,337,3.0,18.0,66,0.00,,,0.00,Weather View 32 v70,2013-04-02 11:57:00,
2013-04-02 08:02:00,24.3,13.5,29.72,NW,315,1.0,18.0,63,0.00,,,0.00,Weather View 32 v70,2013-04-02 12:02:00,
2013-04-02 08:07:00,23.9,13.1,29.72,SE,135,1.0,18.0,63,0.00,,,0.00,Weather View 32 v70,2013-04-02 12:07:00,
2013-04-02 08:12:00,24.3,14.6,29.73,ENE,67,0.0,18.0,66,0.00,,,0.00,Weather View 32 v70,2013-04-02 12:12:00,
2013-04-02 08:17:00,24.4,11.7,29.73,South,180,4.0,18.0,58,0.00,,,0.00,Weather View 32 v70,2013-04-02 12:17:00,
2013-04-02 08:22:00,24.9,8.9,29.73,SSW,202,4.0,18.0,50,0.00,,,0.00,Weather View 32 v70,2013-04-02 12:22:00,
2013-04-02 08:27:00,25.1,9.9,29.74,WNW,292,6.0,18.0,52,0.00,,,0.00,Weather View 32 v70,2013-04-02 12:27:00,
2013-04-02 08:32:00,25.3,10.6,29.74,NNW,337,6.0,18.0,53,0.00,,,0.00,Weather View 32 v70,2013-04-02 12:32:00,
2013-04-02 08:37:00,25.6,10.4,29.74,WSW,247,2.0,18.0,52,0.00,,,0.00,Weather View 32 v70,2013-04-02 12:37:00,
2013-04-02 08:42:00,26.1,10.4,29.74,NW,315,2.0,18.0,51,0.00,,,0.00,Weather View 32 v70,2013-04-02 12:42:00,
2013-04-02 08:47:00,25.9,10.7,29.74,WSW,247,1.0,18.0,52,0.00,,,0.00,Weather View 32 v70,2013-04-02 12:47:00,
2013-04-02 08:52:00,26.4,11.1,29.74,NNE,22,3.0,18.0,52,0.00,,,0.00,Weather View 32 v70,2013-04-02 12:52:00,
2013-04-02 08:57:00,26.6,12.2,29.74,West,270,2.0,14.0,54,0.00,,,0.00,Weather View 32 v70,2013-04-02 12:57:00,
2013-04-02 09:02:00,26.3,11.5,29.75,West,270,6.0,14.0,53,0.00,,,0.00,Weather View 32 v70,2013-04-02 13:02:00,
2013-04-02 09:07:00,26.7,12.3,29.73,NW,315,1.0,14.0,54,0.00,,,0.00,Weather View 32 v70,2013-04-02 13:07:00,
2013-04-02 09:12:00,27.1,11.8,29.74,SSW,202,6.0,14.0,52,0.00,,,0.00,Weather View 32 v70,2013-04-02 13:12:00,
2013-04-02 09:17:00,26.7,11.4,29.73,WSW,247,4.0,14.0,52,0.00,,,0.00,Weather View 32 v70,2013-04-02 13:17:00,
2013-04-02 09:22:00,26.5,11.7,29.73,NNW,337,3.0,15.0,53,0.00,,,0.00,Weather View 32 v70,2013-04-02 13:22:00,
2013-04-02 09:27:00,26.6,11.8,29.73,WSW,247,2.0,15.0,53,0.00,,,0.00,Weather View 32 v70,2013-04-02 13:27:00,
2013-04-02 09:32:00,27.2,13.2,29.73,West,270,4.0,15.0,55,0.00,,,0.00,Weather View 32 v70,2013-04-02 13:32:00,
2013-04-02 09:37:00,26.8,11.9,29.73,WNW,292,5.0,15.0,53,0.00,,,0.00,Weather View 32 v70,2013-04-02 13:37:00,
2013-04-02 09:42:00,27.2,11.9,29.73,SSW,202,2.0,15.0,52,0.00,,,0.00,Weather View 32 v70,2013-04-02 13:42:00,
2013-04-02 09:47:00,27.2,12.7,29.73,SW,225,1.0,15.0,54,0.00,,,0.00,Weather View 32 v70,2013-04-02 13:47:00,
2013-04-02 09:52:00,27.5,13.0,29.73,SSE,157,1.0,15.0,54,0.00,,,0.00,Weather View 32 v70,2013-04-02 13:52:00,
2013-04-02 09:57:00,27.3,11.5,29.73,North,360,3.0,16.0,51,0.00,,,0.00,Weather View 32 v70,2013-04-02 13:57:00,
2013-04-02 10:02:00,26.7,10.5,29.73,WSW,247,3.0,19.0,50,0.00,,,0.00,Weather View 32 v70,2013-04-02 14:02:00,
2013-04-02 10:08:00,27.1,14.3,29.73,WNW,292,10.0,20.0,58,0.00,,,0.00,Weather View 32 v70,2013-04-02 14:08:00,
2013-04-02 10:13:00,27.3,11.5,29.73,West,270,5.0,20.0,51,0.00,,,0.00,Weather View 32 v70,2013-04-02 14:13:00,
2013-04-02 10:18:00,27.7,12.4,29.73,East,90,3.0,20.0,52,0.00,,,0.00,Weather View 32 v70,2013-04-02 14:18:00,
2013-04-02 10:23:00,27.9,13.4,29.73,SSW,202,8.0,20.0,54,0.00,,,0.00,Weather View 32 v70,2013-04-02 14:23:00,
2013-04-02 10:28:00,27.5,11.7,29.73,WNW,292,7.0,20.0,51,0.00,,,0.00,Weather View 32 v70,2013-04-02 14:28:00,
2013-04-02 10:33:00,27.9,11.7,29.73,WNW,292,11.0,20.0,50,0.00,,,0.00,Weather View 32 v70,2013-04-02 14:33:00,
2013-04-02 10:38:00,27.4,11.6,29.73,WNW,292,19.0,20.0,51,0.00,,,0.00,Weather View 32 v70,2013-04-02 14:38:00,
2013-04-02 10:43:00,27.2,11.9,29.73,West,270,2.0,20.0,52,0.00,,,0.00,Weather View 32 v70,2013-04-02 14:43:00,
2013-04-02 10:48:00,26.8,11.5,29.73,WNW,292,6.0,20.0,52,0.00,,,0.00,Weather View 32 v70,2013-04-02 14:48:00,
2013-04-02 10:53:00,26.9,12.5,29.73,NE,45,1.0,20.0,54,0.00,,,0.00,Weather View 32 v70,2013-04-02 14:53:00,
2013-04-02 10:58:00,27.0,11.7,29.73,SSW,202,1.0,20.0,52,0.00,,,0.00,Weather View 32 v70,2013-04-02 14:58:00,
2013-04-02 11:03:00,27.2,11.9,29.73,WNW,292,9.0,20.0,52,0.00,,,0.00,Weather View 32 v70,2013-04-02 15:03:00,
2013-04-02 11:08:00,27.4,11.6,29.73,WNW,292,2.0,20.0,51,0.00,,,0.00,Weather View 32 v70,2013-04-02 15:08:00,
2013-04-02 11:13:00,27.9,14.2,29.73,ESE,112,1.0,20.0,56,0.00,,,0.00,Weather View 32 v70,2013-04-02 15:13:00,
2013-04-02 11:18:00,27.1,13.1,29.73,NW,315,2.0,20.0,55,0.00,,,0.00,Weather View 32 v70,2013-04-02 15:18:00,
2013-04-02 11:23:00,27.1,13.1,29.73,South,180,3.0,20.0,55,0.00,,,0.00,Weather View 32 v70,2013-04-02 15:23:00,
2013-04-02 11:28:00,27.5,15.8,29.73,NNW,337,2.0,20.0,61,0.00,,,0.00,Weather View 32 v70,2013-04-02 15:28:00,
2013-04-02 11:33:00,27.8,14.5,29.73,WNW,292,2.0,20.0,57,0.00,,,0.00,Weather View 32 v70,2013-04-02 15:33:00,
2013-04-02 11:38:00,27.9,13.8,29.73,SSE,157,2.0,20.0,55,0.00,,,0.00,Weather View 32 v70,2013-04-02 15:38:00,
2013-04-02 11:43:00,27.4,13.8,29.73,North,360,1.0,20.0,56,0.00,,,0.00,Weather View 32 v70,2013-04-02 15:43:00,
2013-04-02 11:48:00,27.6,13.9,29.73,SW,225,3.0,20.0,56,0.00,,,0.00,Weather View 32 v70,2013-04-02 15:48:00,
2013-04-02 11:53:00,27.8,13.7,29.73,WNW,292,6.0,20.0,55,0.00,,,0.00,Weather View 32 v70,2013-04-02 15:53:00,
2013-04-02 11:58:00,28.1,14.8,29.72,SSE,157,1.0,20.0,57,0.00,,,0.00,Weather View 32 v70,2013-04-02 15:58:00,
2013-04-02 12:03:00,28.7,15.8,29.73,WNW,292,5.0,20.0,58,0.00,,,0.00,Weather View 32 v70,2013-04-02 16:03:00,
2013-04-02 12:08:00,27.9,17.7,29.73,SW,225,1.0,19.0,65,0.00,,,0.00,Weather View 32 v70,2013-04-02 16:08:00,
2013-04-02 12:13:00,27.9,23.7,29.73,WNW,292,1.0,19.0,84,0.00,,,0.00,Weather View 32 v70,2013-04-02 16:13:00,
2013-04-02 12:18:00,28.0,18.5,29.73,NW,315,7.0,19.0,67,0.00,,,0.00,Weather View 32 v70,2013-04-02 16:18:00,
2013-04-02 12:23:00,28.1,17.1,29.72,West,270,2.0,19.0,63,0.00,,,0.00,Weather View 32 v70,2013-04-02 16:23:00,
2013-04-02 12:28:00,27.8,16.5,29.72,SSW,202,2.0,19.0,62,0.00,,,0.00,Weather View 32 v70,2013-04-02 16:28:00,
2013-04-02 12:34:00,25.9,20.0,29.72,NNW,337,2.0,19.0,78,0.00,,,0.00,Weather View 32 v70,2013-04-02 16:34:00,
2013-04-02 12:39:00,25.6,20.6,29.73,SSE,157,4.0,19.0,81,0.00,,,0.00,Weather View 32 v70,2013-04-02 16:39:00,
2013-04-02 12:45:00,27.3,19.8,29.71,SSW,202,1.0,19.0,73,0.00,,,0.00,Weather View 32 v70,2013-04-02 16:45:00,
2013-04-02 12:50:00,28.2,14.9,29.71,ENE,67,1.0,19.0,57,0.00,,,0.00,Weather View 32 v70,2013-04-02 16:50:00,
2013-04-02 12:55:00,28.5,14.4,29.71,SSW,202,2.0,16.0,55,0.00,,,0.00,Weather View 32 v70,2013-04-02 16:55:00,
2013-04-02 13:00:00,28.6,15.3,29.70,ENE,67,5.0,16.0,57,0.00,,,0.00,Weather View 32 v70,2013-04-02 17:00:00,
2013-04-02 13:05:00,28.2,14.1,29.71,SW,225,2.0,16.0,55,0.00,,,0.00,Weather View 32 v70,2013-04-02 17:05:00,
2013-04-02 13:10:00,28.5,14.4,29.71,West,270,13.0,16.0,55,0.00,,,0.00,Weather View 32 v70,2013-04-02 17:10:00,
2013-04-02 13:15:00,27.8,13.7,29.70,WNW,292,1.0,16.0,55,0.00,,,0.00,Weather View 32 v70,2013-04-02 17:15:00,
2013-04-02 13:20:00,28.9,12.6,29.70,WNW,292,3.0,16.0,50,0.00,,,0.00,Weather View 32 v70,2013-04-02 17:20:00,
2013-04-02 13:25:00,28.9,13.5,29.70,WNW,292,7.0,16.0,52,0.00,,,0.00,Weather View 32 v70,2013-04-02 17:25:00,
2013-04-02 13:30:00,29.5,13.1,29.70,South,180,3.0,16.0,50,0.00,,,0.00,Weather View 32 v70,2013-04-02 17:30:00,
2013-04-02 13:35:00,29.6,15.4,29.71,South,180,6.0,16.0,55,0.00,,,0.00,Weather View 32 v70,2013-04-02 17:35:00,
2013-04-02 13:40:00,29.5,16.1,29.71,NNW,337,5.0,16.0,57,0.00,,,0.00,Weather View 32 v70,2013-04-02 17:40:00,
2013-04-02 13:45:00,29.5,16.1,29.71,SSE,157,2.0,16.0,57,0.00,,,0.00,Weather View 32 v70,2013-04-02 17:45:00,
2013-04-02 13:50:00,29.5,15.3,29.70,WNW,292,5.0,21.0,55,0.00,,,0.00,Weather View 32 v70,2013-04-02 17:50:00,
2013-04-02 13:55:00,29.2,15.9,29.70,NNW,337,2.0,21.0,57,0.00,,,0.00,Weather View 32 v70,2013-04-02 17:55:00,
2013-04-02 14:00:00,29.9,17.3,29.70,WNW,292,8.0,21.0,59,0.00,,,0.00,Weather View 32 v70,2013-04-02 18:00:00,
2013-04-02 14:05:00,30.0,16.6,29.70,WNW,292,6.0,22.0,57,0.00,,,0.00,Weather View 32 v70,2013-04-02 18:05:00,
2013-04-02 14:10:00,29.7,15.1,29.70,NNW,337,1.0,22.0,54,0.00,,,0.00,Weather View 32 v70,2013-04-02 18:10:00,
2013-04-02 14:15:00,29.9,14.8,29.70,WNW,292,1.0,22.0,53,0.00,,,0.00,Weather View 32 v70,2013-04-02 18:15:00,
2013-04-02 14:20:00,30.2,16.0,29.70,NW,315,1.0,22.0,55,0.00,,,0.00,Weather View 32 v70,2013-04-02 18:20:00,
2013-04-02 14:25:00,30.0,17.0,29.70,NW,315,3.0,22.0,58,0.00,,,0.00,Weather View 32 v70,2013-04-02 18:25:00,
2013-04-02 14:30:00,29.5,14.5,29.70,SSW,202,7.0,22.0,53,0.00,,,0.00,Weather View 32 v70,2013-04-02 18:30:00,
2013-04-02 14:35:00,29.2,14.6,29.70,ESE,112,1.0,22.0,54,0.00,,,0.00,Weather View 32 v70,2013-04-02 18:35:00,
2013-04-02 14:40:00,29.4,15.6,29.70,NW,315,1.0,22.0,56,0.35,,,0.00,Weather View 32 v70,2013-04-02 18:40:00,
2013-04-02 14:45:00,29.2,14.6,29.70,SSW,202,0.0,22.0,54,0.00,,,0.00,Weather View 32 v70,2013-04-02 18:45:00,
2013-04-02 14:50:00,29.2,14.6,29.70,SSW,202,0.0,22.0,54,0.00,,,0.00,Weather View 32 v70,2013-04-02 18:50:00,
2013-04-02 14:56:00,29.2,14.6,29.70,SSW,202,0.0,22.0,54,0.00,,,0.00,Weather View 32 v70,2013-04-02 18:56:00,
2013-04-02 15:01:00,29.2,14.6,29.70,SSW,202,0.0,15.0,54,0.00,,,0.00,Weather View 32 v70,2013-04-02 19:01:00,
2013-04-02 15:06:00,29.2,14.6,29.70,SSW,202,0.0,15.0,54,0.00,,,0.00,Weather View 32 v70,2013-04-02 19:06:00,
2013-04-02 15:11:00,29.2,14.6,29.70,SSW,202,0.0,15.0,54,0.00,,,0.00,Weather View 32 v70,2013-04-02 19:11:00,
2013-04-02 15:17:00,29.2,14.6,29.70,SSW,202,0.0,15.0,54,0.00,,,0.00,Weather View 32 v70,2013-04-02 19:17:00,
2013-04-02 15:22:00,29.2,14.6,29.70,SSW,202,0.0,15.0,54,0.00,,,0.00,Weather View 32 v70,2013-04-02 19:22:00,
2013-04-02 15:27:00,29.2,14.6,29.70,SSW,202,0.0,15.0,54,0.00,,,0.00,Weather View 32 v70,2013-04-02 19:27:00,
2013-04-02 15:32:00,29.2,14.6,29.70,SSW,202,0.0,15.0,54,0.00,,,0.00,Weather View 32 v70,2013-04-02 19:32:00,
2013-04-02 15:37:00,29.2,14.6,29.70,SSW,202,0.0,11.0,54,0.00,,,0.00,Weather View 32 v70,2013-04-02 19:37:00,
2013-04-02 15:42:00,29.2,14.6,29.70,SSW,202,0.0,11.0,54,0.00,,,0.00,Weather View 32 v70,2013-04-02 19:42:00,
2013-04-02 15:48:00,29.2,14.6,29.70,SSW,202,0.0,0.0,54,0.00,,,0.00,Weather View 32 v70,2013-04-02 19:48:00,
2013-04-02 15:53:00,29.2,14.6,29.70,SSW,202,0.0,0.0,54,0.00,,,0.00,Weather View 32 v70,2013-04-02 19:53:00,
2013-04-02 15:58:00,29.2,14.6,29.70,SSW,202,0.0,0.0,54,0.00,,,0.00,Weather View 32 v70,2013-04-02 19:58:00,
2013-04-02 16:03:00,29.2,14.6,29.70,SSW,202,0.0,0.0,54,0.00,,,0.00,Weather View 32 v70,2013-04-02 20:03:00,
2013-04-02 16:08:00,29.2,14.6,29.70,SSW,202,0.0,0.0,54,0.00,,,0.00,Weather View 32 v70,2013-04-02 20:08:00,
2013-04-02 16:13:00,29.2,14.6,29.70,SSW,202,0.0,0.0,54,0.00,,,0.00,Weather View 32 v70,2013-04-02 20:13:00,
2013-04-02 16:18:00,29.2,14.6,29.70,SSW,202,0.0,0.0,54,0.00,,,0.00,Weather View 32 v70,2013-04-02 20:18:00,
2013-04-02 16:23:00,29.2,14.6,29.70,SSW,202,0.0,0.0,54,0.00,,,0.00,Weather View 32 v70,2013-04-02 20:23:00,
2013-04-02 16:28:00,29.2,14.6,29.70,SSW,202,0.0,0.0,54,0.00,,,0.00,Weather View 32 v70,2013-04-02 20:28:00,
2013-04-02 16:33:00,29.2,14.6,29.70,SSW,202,0.0,0.0,54,0.00,,,0.00,Weather View 32 v70,2013-04-02 20:33:00,
2013-04-02 16:38:00,29.2,14.6,29.70,SSW,202,0.0,0.0,54,0.00,,,0.00,Weather View 32 v70,2013-04-02 20:38:00,
2013-04-02 16:44:00,29.2,14.6,29.70,SSW,202,0.0,0.0,54,0.00,,,0.00,Weather View 32 v70,2013-04-02 20:44:00,
2013-04-02 16:49:00,29.2,14.6,29.70,SSW,202,0.0,0.0,54,0.00,,,0.00,Weather View 32 v70,2013-04-02 20:49:00,
2013-04-02 16:54:00,29.2,14.6,29.70,SSW,202,0.0,0.0,54,0.00,,,0.00,Weather View 32 v70,2013-04-02 20:54:00,
2013-04-02 16:59:00,29.2,14.6,29.70,SSW,202,0.0,0.0,54,0.00,,,0.00,Weather View 32 v70,2013-04-02 20:59:00,
2013-04-02 17:04:00,29.2,14.6,29.70,SSW,202,0.0,0.0,54,0.00,,,0.00,Weather View 32 v70,2013-04-02 21:04:00,
2013-04-02 17:09:00,29.2,14.6,29.70,SSW,202,0.0,0.0,54,0.00,,,0.00,Weather View 32 v70,2013-04-02 21:09:00,
2013-04-02 17:14:00,29.2,14.6,29.70,SSW,202,0.0,0.0,54,0.00,,,0.00,Weather View 32 v70,2013-04-02 21:14:00,
2013-04-02 17:19:00,29.2,14.6,29.70,SSW,202,0.0,0.0,54,0.00,,,0.00,Weather View 32 v70,2013-04-02 21:19:00,
2013-04-02 17:24:00,29.2,14.6,29.70,SSW,202,0.0,0.0,54,0.00,,,0.00,Weather View 32 v70,2013-04-02 21:24:00,
2013-04-02 17:29:00,29.2,14.6,29.70,SSW,202,0.0,0.0,54,0.00,,,0.00,Weather View 32 v70,2013-04-02 21:29:00,
2013-04-02 17:34:00,29.2,14.6,29.70,SSW,202,0.0,0.0,54,0.00,,,0.00,Weather View 32 v70,2013-04-02 21:34:00,
2013-04-02 17:39:00,29.2,14.6,29.70,SSW,202,0.0,0.0,54,0.00,,,0.00,Weather View 32 v70,2013-04-02 21:39:00,
2013-04-02 17:44:00,29.2,14.6,29.70,SSW,202,0.0,0.0,54,0.00,,,0.00,Weather View 32 v70,2013-04-02 21:44:00,
2013-04-02 17:49:00,29.2,14.6,29.70,SSW,202,0.0,0.0,54,0.00,,,0.00,Weather View 32 v70,2013-04-02 21:49:00,
2013-04-02 17:54:00,29.2,14.6,29.70,SSW,202,0.0,0.0,54,0.00,,,0.00,Weather View 32 v70,2013-04-02 21:54:00,
2013-04-02 17:59:00,29.2,14.6,29.70,SSW,202,0.0,0.0,54,0.00,,,0.00,Weather View 32 v70,2013-04-02 21:59:00,
2013-04-02 18:04:00,29.2,14.6,29.70,SSW,202,0.0,0.0,54,0.00,,,0.00,Weather View 32 v70,2013-04-02 22:04:00,
2013-04-02 18:09:00,29.2,14.6,29.70,SSW,202,0.0,0.0,54,0.00,,,0.00,Weather View 32 v70,2013-04-02 22:09:00,
2013-04-02 18:14:00,29.2,14.6,29.70,SSW,202,0.0,0.0,54,0.00,,,0.00,Weather View 32 v70,2013-04-02 22:14:00,
2013-04-02 18:20:00,29.2,14.6,29.70,SSW,202,0.0,0.0,54,0.00,,,0.00,Weather View 32 v70,2013-04-02 22:20:00,
2013-04-02 18:25:00,29.2,14.6,29.70,SSW,202,0.0,0.0,54,0.00,,,0.00,Weather View 32 v70,2013-04-02 22:25:00,
2013-04-02 18:30:00,29.2,14.6,29.70,SSW,202,0.0,0.0,54,0.00,,,0.00,Weather View 32 v70,2013-04-02 22:30:00,
2013-04-02 18:35:00,29.2,14.6,29.70,SSW,202,0.0,0.0,54,0.00,,,0.00,Weather View 32 v70,2013-04-02 22:35:00,
2013-04-02 18:40:00,29.2,14.6,29.70,SSW,202,0.0,0.0,54,0.00,,,0.00,Weather View 32 v70,2013-04-02 22:40:00,
2013-04-02 18:45:00,29.2,14.6,29.70,SSW,202,0.0,0.0,54,0.00,,,0.00,Weather View 32 v70,2013-04-02 22:45:00,
2013-04-02 18:50:00,29.2,14.6,29.70,SSW,202,0.0,0.0,54,0.00,,,0.00,Weather View 32 v70,2013-04-02 22:50:00,
2013-04-02 18:55:00,29.2,14.6,29.70,SSW,202,0.0,0.0,54,0.00,,,0.00,Weather View 32 v70,2013-04-02 22:55:00,
2013-04-02 19:00:00,29.2,14.6,29.70,SSW,202,0.0,0.0,54,0.00,,,0.00,Weather View 32 v70,2013-04-02 23:00:00,
2013-04-02 19:05:00,29.2,14.6,29.70,SSW,202,0.0,0.0,54,0.00,,,0.00,Weather View 32 v70,2013-04-02 23:05:00,
2013-04-02 19:10:00,29.2,14.6,29.70,SSW,202,0.0,0.0,54,0.00,,,0.00,Weather View 32 v70,2013-04-02 23:10:00,
2013-04-02 19:15:00,29.2,14.6,29.70,SSW,202,0.0,0.0,54,0.00,,,0.00,Weather View 32 v70,2013-04-02 23:15:00,
2013-04-02 19:20:00,29.2,14.6,29.70,SSW,202,0.0,0.0,54,0.00,,,0.00,Weather View 32 v70,2013-04-02 23:20:00,
2013-04-02 19:25:00,29.2,14.6,29.70,SSW,202,0.0,0.0,54,0.00,,,0.00,Weather View 32 v70,2013-04-02 23:25:00,
2013-04-02 19:31:00,29.2,14.6,29.70,SSW,202,0.0,0.0,54,0.00,,,0.00,Weather View 32 v70,2013-04-02 23:31:00,
2013-04-02 19:36:00,29.2,14.6,29.70,SSW,202,0.0,0.0,54,0.00,,,0.00,Weather View 32 v70,2013-04-02 23:36:00,
2013-04-02 19:41:00,29.2,14.6,29.70,SSW,202,0.0,0.0,54,0.00,,,0.00,Weather View 32 v70,2013-04-02 23:41:00,
2013-04-02 19:46:00,29.2,14.6,29.70,SSW,202,0.0,0.0,54,0.00,,,0.00,Weather View 32 v70,2013-04-02 23:46:00,
2013-04-02 19:51:00,29.2,14.6,29.70,SSW,202,0.0,0.0,54,0.00,,,0.00,Weather View 32 v70,2013-04-02 23:51:00,
2013-04-02 19:56:00,29.2,14.6,29.70,SSW,202,0.0,0.0,54,0.00,,,0.00,Weather View 32 v70,2013-04-02 23:56:00,
2013-04-02 20:01:00,29.2,14.6,29.70,SSW,202,0.0,0.0,54,0.00,,,0.00,Weather View 32 v70,2013-04-03 00:01:00,
2013-04-02 20:06:00,29.2,14.6,29.70,SSW,202,0.0,0.0,54,0.00,,,0.00,Weather View 32 v70,2013-04-03 00:06:00,
2013-04-02 20:11:00,29.2,14.6,29.70,SSW,202,0.0,0.0,54,0.00,,,0.00,Weather View 32 v70,2013-04-03 00:11:00,
2013-04-02 20:17:00,29.2,14.6,29.70,SSW,202,0.0,0.0,54,0.00,,,0.00,Weather View 32 v70,2013-04-03 00:17:00,
2013-04-02 20:22:00,29.2,14.6,29.70,SSW,202,0.0,0.0,54,0.00,,,0.00,Weather View 32 v70,2013-04-03 00:22:00,
2013-04-02 20:27:00,29.2,14.6,29.70,SSW,202,0.0,0.0,54,0.00,,,0.00,Weather View 32 v70,2013-04-03 00:27:00,
2013-04-02 20:32:00,29.2,14.6,29.70,SSW,202,0.0,0.0,54,0.00,,,0.00,Weather View 32 v70,2013-04-03 00:32:00,
2013-04-02 20:37:00,29.2,14.6,29.70,SSW,202,0.0,0.0,54,0.00,,,0.00,Weather View 32 v70,2013-04-03 00:37:00,
2013-04-02 20:42:00,29.2,14.6,29.70,SSW,202,0.0,0.0,54,0.00,,,0.00,Weather View 32 v70,2013-04-03 00:42:00,
2013-04-02 20:47:00,29.2,14.6,29.70,SSW,202,0.0,0.0,54,0.00,,,0.00,Weather View 32 v70,2013-04-03 00:47:00,
2013-04-02 20:53:00,29.2,14.6,29.70,SSW,202,0.0,0.0,54,0.00,,,0.00,Weather View 32 v70,2013-04-03 00:53:00,
2013-04-02 20:58:00,29.2,14.6,29.70,SSW,202,0.0,0.0,54,0.00,,,0.00,Weather View 32 v70,2013-04-03 00:58:00,
2013-04-02 21:03:00,29.2,14.6,29.70,SSW,202,0.0,0.0,54,0.00,,,0.00,Weather View 32 v70,2013-04-03 01:03:00,
2013-04-02 21:08:00,29.2,14.6,29.70,SSW,202,0.0,0.0,54,0.00,,,0.00,Weather View 32 v70,2013-04-03 01:08:00,
2013-04-02 21:13:00,29.2,14.6,29.70,SSW,202,0.0,0.0,54,0.00,,,0.00,Weather View 32 v70,2013-04-03 01:13:00,
2013-04-02 21:18:00,29.2,14.6,29.70,SSW,202,0.0,0.0,54,0.00,,,0.00,Weather View 32 v70,2013-04-03 01:18:00,
2013-04-02 21:23:00,29.2,14.6,29.70,SSW,202,0.0,0.0,54,0.00,,,0.00,Weather View 32 v70,2013-04-03 01:23:00,
2013-04-02 21:28:00,29.2,14.6,29.70,SSW,202,0.0,0.0,54,0.00,,,0.00,Weather View 32 v70,2013-04-03 01:28:00,
2013-04-02 21:33:00,29.2,14.6,29.70,SSW,202,0.0,0.0,54,0.00,,,0.00,Weather View 32 v70,2013-04-03 01:33:00,
2013-04-02 21:38:00,29.2,14.6,29.70,SSW,202,0.0,0.0,54,0.00,,,0.00,Weather View 32 v70,2013-04-03 01:38:00,
2013-04-02 21:43:00,29.2,14.6,29.70,SSW,202,0.0,0.0,54,0.00,,,0.00,Weather View 32 v70,2013-04-03 01:43:00,
2013-04-02 21:48:00,29.2,14.6,29.70,SSW,202,0.0,0.0,54,0.00,,,0.00,Weather View 32 v70,2013-04-03 01:48:00,
2013-04-02 21:53:00,29.2,14.6,29.70,SSW,202,0.0,0.0,54,0.00,,,0.00,Weather View 32 v70,2013-04-03 01:53:00,
2013-04-02 21:58:00,29.2,14.6,29.70,SSW,202,0.0,0.0,54,0.00,,,0.00,Weather View 32 v70,2013-04-03 01:58:00,
2013-04-02 22:03:00,29.2,14.6,29.70,SSW,202,0.0,0.0,54,0.00,,,0.00,Weather View 32 v70,2013-04-03 02:03:00,
2013-04-02 22:08:00,29.2,14.6,29.70,SSW,202,0.0,0.0,54,0.00,,,0.00,Weather View 32 v70,2013-04-03 02:08:00,
2013-04-02 22:13:00,29.2,14.6,29.70,SSW,202,0.0,0.0,54,0.00,,,0.00,Weather View 32 v70,2013-04-03 02:13:00,
2013-04-02 22:21:00,29.2,14.6,29.70,SSW,202,0.0,0.0,54,0.00,,,0.00,Weather View 32 v70,2013-04-03 02:21:00,
2013-04-02 22:26:00,29.2,14.6,29.70,SSW,202,0.0,0.0,54,0.00,,,0.00,Weather View 32 v70,2013-04-03 02:26:00,
2013-04-02 22:31:00,29.2,14.6,29.70,SSW,202,0.0,0.0,54,0.00,,,0.00,Weather View 32 v70,2013-04-03 02:31:00,
2013-04-02 22:36:00,29.2,14.6,29.70,SSW,202,0.0,0.0,54,0.00,,,0.00,Weather View 32 v70,2013-04-03 02:36:00,
2013-04-02 22:41:00,29.2,14.6,29.70,SSW,202,0.0,0.0,54,0.00,,,0.00,Weather View 32 v70,2013-04-03 02:41:00,
2013-04-02 22:46:00,29.2,14.6,29.70,SSW,202,0.0,0.0,54,0.00,,,0.00,Weather View 32 v70,2013-04-03 02:46:00,
2013-04-02 22:51:00,29.2,14.6,29.70,SSW,202,0.0,0.0,54,0.00,,,0.00,Weather View 32 v70,2013-04-03 02:51:00,
2013-04-02 22:56:00,29.2,14.6,29.70,SSW,202,0.0,0.0,54,0.00,,,0.00,Weather View 32 v70,2013-04-03 02:56:00,
2013-04-02 23:02:00,29.2,14.6,29.70,SSW,202,0.0,0.0,54,0.00,,,0.00,Weather View 32 v70,2013-04-03 03:02:00,
2013-04-02 23:07:00,29.2,14.6,29.70,SSW,202,0.0,0.0,54,0.00,,,0.00,Weather View 32 v70,2013-04-03 03:07:00,
2013-04-02 23:12:00,29.2,14.6,29.70,SSW,202,0.0,0.0,54,0.00,,,0.00,Weather View 32 v70,2013-04-03 03:12:00,
2013-04-02 23:17:00,29.2,14.6,29.70,SSW,202,0.0,0.0,54,0.00,,,0.00,Weather View 32 v70,2013-04-03 03:17:00,
2013-04-02 23:22:00,29.2,14.6,29.70,SSW,202,0.0,0.0,54,0.00,,,0.00,Weather View 32 v70,2013-04-03 03:22:00,
2013-04-02 23:27:00,29.2,14.6,29.70,SSW,202,0.0,0.0,54,0.00,,,0.00,Weather View 32 v70,2013-04-03 03:27:00,
2013-04-02 23:32:00,29.2,14.6,29.70,SSW,202,0.0,0.0,54,0.00,,,0.00,Weather View 32 v70,2013-04-03 03:32:00,
2013-04-02 23:38:00,29.2,14.6,29.70,SSW,202,0.0,0.0,54,0.00,,,0.00,Weather View 32 v70,2013-04-03 03:38:00,
2013-04-02 23:43:00,29.2,14.6,29.70,SSW,202,0.0,0.0,54,0.00,,,0.00,Weather View 32 v70,2013-04-03 03:43:00,
2013-04-02 23:48:00,29.2,14.6,29.70,SSW,202,0.0,0.0,54,0.00,,,0.00,Weather View 32 v70,2013-04-03 03:48:00,
2013-04-02 23:53:00,29.2,14.6,29.70,SSW,202,0.0,0.0,54,0.00,,,0.00,Weather View 32 v70,2013-04-03 03:53:00,
2013-04-02 23:58:00,29.2,14.6,29.70,SSW,202,0.0,0.0,54,0.00,,,0.00,Weather View 32 v70,2013-04-03 03:58:00,